Jerome, Florida
Current Conditions -  °F | °C
As of 1:35 PM on Thursday 30 Oct 2014 (Local Time) from KMKY Reporting Station
Few Clouds Few Clouds  
Wind Chill: 84°   Ceiling: Unl
Heat Index: 88°   Visibility: 10mi
Dew Point: 70°   Wind: 9mph
Humidity: 62%   Direction: 200°SSW
Pressure: 29.93"   Gusts: NA
Location:  25.8666°N, 81.0856°W
Report Text: KMKY 301735Z 20008KT 170V250 10SM FEW031 29/21 A2993 RMK AO1
Loading
Personal Weather Stations






























Interactive Weather Map
Tropical Storm Tracking
New forecast layout! Learn more

10-Day Weather Forecast

Advertisements
Track Severe Weather on mobile